createdAt,value
2023-01-19T00:01:08.983Z,989.9
2023-01-19T00:02:25.273Z,989.9
2023-01-19T00:03:41.565Z,989.9
2023-01-19T00:04:57.869Z,989.9
2023-01-19T00:06:14.163Z,989.8
2023-01-19T00:07:29.478Z,989.9
2023-01-19T00:08:45.765Z,989.9
2023-01-19T00:10:02.067Z,989.9
2023-01-19T00:11:18.354Z,989.9
2023-01-19T00:12:34.651Z,990
2023-01-19T00:13:50.939Z,990
2023-01-19T00:15:07.248Z,990
2023-01-19T00:16:23.537Z,990
2023-01-19T00:17:39.829Z,990.1
2023-01-19T00:18:56.127Z,990
2023-01-19T00:20:12.413Z,990.1
2023-01-19T00:21:28.713Z,990.1
2023-01-19T00:22:45.011Z,990.1
2023-01-19T00:24:00.318Z,990.1
2023-01-19T00:25:16.614Z,990.2
2023-01-19T00:26:32.906Z,990.2
2023-01-19T00:27:49.210Z,990.1
2023-01-19T00:29:05.503Z,990.1
2023-01-19T00:30:21.801Z,990.2
2023-01-19T00:31:38.094Z,990.2
2023-01-19T00:32:54.388Z,990.3
2023-01-19T00:34:10.695Z,990.4
2023-01-19T00:35:26.984Z,990.3
2023-01-19T00:36:43.267Z,990.2
2023-01-19T00:37:59.565Z,990.2
2023-01-19T00:39:15.860Z,990.4
2023-01-19T00:40:31.177Z,990.3
2023-01-19T00:41:47.479Z,990.3
2023-01-19T00:43:03.770Z,990.3
2023-01-19T00:44:20.071Z,990.3
2023-01-19T00:45:36.358Z,990.4
2023-01-19T00:46:52.645Z,990.3
2023-01-19T00:48:08.945Z,990.4
2023-01-19T00:49:25.247Z,990.4
2023-01-19T00:50:41.546Z,990.4
2023-01-19T00:51:57.827Z,990.3
2023-01-19T00:53:14.127Z,990.4
2023-01-19T00:54:30.421Z,990.4
2023-01-19T00:55:46.714Z,990.4
2023-01-19T00:57:02.031Z,990.4
2023-01-19T00:58:18.324Z,990.4
2023-01-19T00:59:34.622Z,990.4
2023-01-19T01:00:50.913Z,990.4
2023-01-19T01:02:07.219Z,990.4
2023-01-19T01:03:23.496Z,990.4
2023-01-19T01:04:39.798Z,990.4
2023-01-19T01:05:56.093Z,990.4
2023-01-19T01:07:12.389Z,990.5
2023-01-19T01:08:28.682Z,990.4
2023-01-19T01:09:44.977Z,990.4
2023-01-19T01:11:01.266Z,990.4
2023-01-19T01:12:17.574Z,990.5
2023-01-19T01:13:32.874Z,990.6
2023-01-19T01:14:49.179Z,990.4
2023-01-19T01:16:05.473Z,990.5
2023-01-19T01:17:21.769Z,990.4
2023-01-19T01:18:38.072Z,990.4
2023-01-19T01:19:54.360Z,990.5
2023-01-19T01:21:10.652Z,990.5
2023-01-19T01:22:26.951Z,990.5
2023-01-19T01:23:43.242Z,990.5
2023-01-19T01:24:59.534Z,990.5
2023-01-19T01:26:15.844Z,990.5
2023-01-19T01:27:32.139Z,990.5
2023-01-19T01:28:48.430Z,990.5
2023-01-19T01:30:03.730Z,990.5
2023-01-19T01:31:20.034Z,990.5
2023-01-19T01:32:36.333Z,990.6
2023-01-19T01:33:52.616Z,990.6
2023-01-19T01:35:08.917Z,990.5
2023-01-19T01:36:25.204Z,990.6
2023-01-19T01:37:40.523Z,990.6
2023-01-19T01:38:56.818Z,990.6
2023-01-19T01:40:13.109Z,990.6
2023-01-19T01:41:29.406Z,990.7
2023-01-19T01:42:45.704Z,990.6
2023-01-19T01:44:01.999Z,990.6
2023-01-19T01:45:18.292Z,990.7
2023-01-19T01:46:34.589Z,990.7
2023-01-19T01:47:50.888Z,990.7
2023-01-19T01:49:07.179Z,990.6
2023-01-19T01:50:23.485Z,990.7
2023-01-19T01:51:39.769Z,990.7
2023-01-19T01:52:56.068Z,990.7
2023-01-19T01:54:11.373Z,990.7
2023-01-19T01:55:27.672Z,990.6
2023-01-19T01:56:43.977Z,990.6
2023-01-19T01:58:00.267Z,990.6
2023-01-19T01:59:16.566Z,990.7
2023-01-19T02:00:32.863Z,990.6
2023-01-19T02:01:49.156Z,990.6
2023-01-19T02:03:05.449Z,990.6
2023-01-19T02:04:21.755Z,990.6
2023-01-19T02:05:38.031Z,990.6
2023-01-19T02:06:54.328Z,990.7
2023-01-19T02:08:10.630Z,990.6
2023-01-19T02:09:26.922Z,990.7
2023-01-19T02:10:42.244Z,990.7
2023-01-19T02:11:58.530Z,990.8
2023-01-19T02:13:14.824Z,990.7
2023-01-19T02:14:31.121Z,990.7
2023-01-19T02:15:47.410Z,990.7
2023-01-19T02:17:03.722Z,990.7
2023-01-19T02:18:19.998Z,990.7
2023-01-19T02:19:36.298Z,990.7
2023-01-19T02:20:52.606Z,990.7
2023-01-19T02:22:08.901Z,990.7
2023-01-19T02:23:25.186Z,990.7
2023-01-19T02:24:41.492Z,990.7
2023-01-19T02:25:57.782Z,990.7
2023-01-19T02:27:13.082Z,990.8
2023-01-19T02:28:29.390Z,990.8
2023-01-19T02:29:45.672Z,990.8
2023-01-19T02:31:01.980Z,990.8
2023-01-19T02:32:18.268Z,990.8
2023-01-19T02:33:34.569Z,990.8
2023-01-19T02:34:50.867Z,990.8
2023-01-19T02:36:07.162Z,990.8
2023-01-19T02:37:23.449Z,990.8
2023-01-19T02:38:39.738Z,990.8
2023-01-19T02:39:56.036Z,990.8
2023-01-19T02:41:12.331Z,990.8
2023-01-19T02:42:28.643Z,990.8
2023-01-19T02:43:43.937Z,990.8
2023-01-19T02:45:00.232Z,990.8
2023-01-19T02:46:16.545Z,990.8
2023-01-19T02:47:32.831Z,990.8
2023-01-19T02:48:49.130Z,990.8
2023-01-19T02:50:05.413Z,990.8
2023-01-19T02:51:21.716Z,990.8
2023-01-19T02:52:38.005Z,990.8
2023-01-19T02:53:54.308Z,990.8
2023-01-19T02:55:10.607Z,990.8
2023-01-19T02:56:26.888Z,990.8
2023-01-19T02:57:43.195Z,990.8
2023-01-19T02:58:59.491Z,990.8
2023-01-19T03:00:14.793Z,990.8
2023-01-19T03:01:31.096Z,990.8
2023-01-19T03:02:47.384Z,990.8
2023-01-19T03:04:03.682Z,990.8
2023-01-19T03:05:19.984Z,990.8
2023-01-19T03:06:36.272Z,990.7
2023-01-19T03:07:52.568Z,990.7
2023-01-19T03:09:08.870Z,990.8
2023-01-19T03:10:25.168Z,990.8
2023-01-19T03:11:41.451Z,990.7
2023-01-19T03:12:57.742Z,990.6
2023-01-19T03:14:14.037Z,990.6
2023-01-19T03:15:30.338Z,990.6
2023-01-19T03:16:45.651Z,990.7
2023-01-19T03:18:01.942Z,990.7
2023-01-19T03:19:18.246Z,990.7
2023-01-19T03:20:34.537Z,990.7
2023-01-19T03:21:50.841Z,990.7
2023-01-19T03:23:07.135Z,990.7
2023-01-19T03:24:23.422Z,990.7
2023-01-19T03:25:39.713Z,990.7
2023-01-19T03:26:56.007Z,990.7
2023-01-19T03:28:12.305Z,990.7
2023-01-19T03:29:28.601Z,990.8
2023-01-19T03:30:44.898Z,990.8
2023-01-19T03:32:01.189Z,990.7
2023-01-19T03:33:16.507Z,990.7
2023-01-19T03:34:32.809Z,990.7
2023-01-19T03:35:49.100Z,990.8
2023-01-19T03:37:05.000Z,990.8
2023-01-19T03:38:21.684Z,990.8
2023-01-19T03:39:37.979Z,990.8
2023-01-19T03:40:54.286Z,990.8
2023-01-19T03:42:10.567Z,990.8
2023-01-19T03:43:26.866Z,991
2023-01-19T03:44:43.178Z,990.9
2023-01-19T03:45:59.461Z,990.8
2023-01-19T03:47:15.754Z,990.9
2023-01-19T03:48:32.048Z,990.8
2023-01-19T03:49:47.361Z,990.9
2023-01-19T03:51:03.653Z,991
2023-01-19T03:52:19.965Z,990.9
2023-01-19T03:53:36.257Z,990.9
2023-01-19T03:54:52.551Z,991
2023-01-19T03:56:08.846Z,990.9
2023-01-19T03:57:25.130Z,991
2023-01-19T03:59:57.729Z,991
2023-01-19T04:01:14.024Z,991
2023-01-19T04:02:30.311Z,991.1
2023-01-19T04:03:46.620Z,991.1
2023-01-19T04:05:02.902Z,991.1
2023-01-19T04:06:18.229Z,991.1
2023-01-19T04:07:34.509Z,991.1
2023-01-19T04:08:50.803Z,991.1
2023-01-19T04:10:07.095Z,991.1
2023-01-19T04:11:23.396Z,991.2
2023-01-19T04:12:39.702Z,991.3
2023-01-19T04:13:56.002Z,991.1
2023-01-19T04:15:12.289Z,991.2
2023-01-19T04:16:28.573Z,991.1
2023-01-19T04:17:44.871Z,991.1
2023-01-19T04:19:01.178Z,991.2
2023-01-19T04:20:17.467Z,991.2
2023-01-19T04:21:33.771Z,991.1
2023-01-19T04:22:49.076Z,991.1
2023-01-19T04:24:05.365Z,991.2
2023-01-19T04:25:21.000Z,991.2
2023-01-19T04:26:37.962Z,991.2
2023-01-19T04:27:54.249Z,991.2
2023-01-19T04:29:10.558Z,991.2
2023-01-19T04:30:26.850Z,991.1
2023-01-19T04:31:43.134Z,991.2
2023-01-19T04:32:59.444Z,991.2
2023-01-19T04:34:15.745Z,991.2
2023-01-19T04:35:32.025Z,991.2
2023-01-19T04:36:48.330Z,991.2
2023-01-19T04:38:04.632Z,991.2
2023-01-19T04:39:19.931Z,991.2
2023-01-19T04:40:36.223Z,991.2
2023-01-19T04:41:52.518Z,991.1
2023-01-19T04:43:08.815Z,991.2
2023-01-19T04:44:25.110Z,991.1
2023-01-19T04:45:41.411Z,991.1
2023-01-19T04:46:57.697Z,991.1
2023-01-19T04:48:13.998Z,991.1
2023-01-19T04:49:30.290Z,991.1
2023-01-19T04:50:46.579Z,991.1
2023-01-19T04:52:02.891Z,991.1
2023-01-19T04:53:19.190Z,991.2
2023-01-19T04:54:35.482Z,991.2
2023-01-19T04:55:50.777Z,991.3
2023-01-19T04:57:07.098Z,991.1
2023-01-19T04:58:23.368Z,991.2
2023-01-19T04:59:39.683Z,991.2
2023-01-19T05:00:55.970Z,991.1
2023-01-19T05:02:12.267Z,991.1
2023-01-19T05:03:28.555Z,991.1
2023-01-19T05:04:44.867Z,991.1
2023-01-19T05:06:01.143Z,991.1
2023-01-19T05:07:17.437Z,991.1
2023-01-19T05:08:33.739Z,991.1
2023-01-19T05:09:50.028Z,991.2
2023-01-19T05:11:06.329Z,991.1
2023-01-19T05:12:21.636Z,991.1
2023-01-19T05:13:37.937Z,991.2
2023-01-19T05:14:54.228Z,991.2
2023-01-19T05:16:10.525Z,991.2
2023-01-19T05:17:26.816Z,991.2
2023-01-19T05:18:43.120Z,991.2
2023-01-19T05:19:59.411Z,991.3
2023-01-19T05:21:15.703Z,991.3
2023-01-19T05:22:32.000Z,991.3
2023-01-19T05:23:48.294Z,991.3
2023-01-19T05:25:04.599Z,991.2
2023-01-19T05:26:20.893Z,991.3
2023-01-19T05:27:37.195Z,991.3
2023-01-19T05:28:52.499Z,991.3
2023-01-19T05:30:08.793Z,991.3
2023-01-19T05:31:25.092Z,991.3
2023-01-19T05:32:41.375Z,991.3
2023-01-19T05:33:57.687Z,991.3
2023-01-19T05:35:13.984Z,991.3
2023-01-19T05:36:30.271Z,991.3
2023-01-19T05:37:46.574Z,991.4
2023-01-19T05:39:02.864Z,991.4
2023-01-19T05:40:19.154Z,991.3
2023-01-19T05:41:35.447Z,991.3
2023-01-19T05:42:51.739Z,991.3
2023-01-19T05:44:08.039Z,991.3
2023-01-19T05:45:23.354Z,991.4
2023-01-19T05:46:39.639Z,991.3
2023-01-19T05:47:55.937Z,991.4
2023-01-19T05:49:12.238Z,991.3
2023-01-19T05:50:28.525Z,991.3
2023-01-19T05:51:44.823Z,991.2
2023-01-19T05:53:00.144Z,991.3
2023-01-19T05:54:16.432Z,991.3
2023-01-19T05:55:32.726Z,991.3
2023-01-19T05:56:49.033Z,991.3
2023-01-19T05:58:05.336Z,991.4
2023-01-19T05:59:21.619Z,991.3
2023-01-19T06:00:37.906Z,991.3
2023-01-19T06:01:54.218Z,991.4
2023-01-19T06:03:10.508Z,991.4
2023-01-19T06:04:26.810Z,991.5
2023-01-19T06:05:43.093Z,991.4
2023-01-19T06:06:59.397Z,991.4
2023-01-19T06:08:15.690Z,991.4
2023-01-19T06:09:30.999Z,991.4
2023-01-19T06:10:47.297Z,991.4
2023-01-19T06:12:03.590Z,991.4
2023-01-19T06:13:19.887Z,991.4
2023-01-19T06:14:36.180Z,991.4
2023-01-19T06:15:52.472Z,991.4
2023-01-19T06:17:08.779Z,991.3
2023-01-19T06:18:25.075Z,991.4
2023-01-19T06:19:41.352Z,991.3
2023-01-19T06:20:57.660Z,991.3
2023-01-19T06:22:13.947Z,991.4
2023-01-19T06:23:30.202Z,991.4
2023-01-19T06:24:46.489Z,991.4
2023-01-19T06:26:01.760Z,991.4
2023-01-19T06:27:17.993Z,991.4
2023-01-19T06:28:34.248Z,991.3
2023-01-19T06:29:50.481Z,991.4
2023-01-19T06:31:06.737Z,991.3
2023-01-19T06:32:22.971Z,991.4
2023-01-19T06:33:39.217Z,991.4
2023-01-19T06:34:55.460Z,991.3
2023-01-19T06:36:11.701Z,991.3
2023-01-19T06:37:27.952Z,991.3
2023-01-19T06:38:44.182Z,991.4
2023-01-19T06:40:00.421Z,991.4
2023-01-19T06:41:16.659Z,991.4
2023-01-19T06:42:31.914Z,991.4
2023-01-19T06:43:48.156Z,991.5
2023-01-19T06:45:04.406Z,991.4
2023-01-19T06:46:20.653Z,991.4
2023-01-19T06:47:36.882Z,991.5
2023-01-19T06:48:53.132Z,991.4
2023-01-19T06:50:09.369Z,991.3
2023-01-19T06:51:25.618Z,991.3
2023-01-19T06:52:41.859Z,991.4
2023-01-19T06:53:58.095Z,991.4
2023-01-19T06:55:14.324Z,991.4
2023-01-19T06:56:30.577Z,991.4
2023-01-19T06:57:46.812Z,991.4
2023-01-19T06:59:02.071Z,991.5
2023-01-19T07:00:18.319Z,991.4
2023-01-19T07:01:34.550Z,991.4
2023-01-19T07:02:50.802Z,991.4
2023-01-19T07:04:07.042Z,991.5
2023-01-19T07:05:23.292Z,991.4
2023-01-19T07:06:39.532Z,991.4
2023-01-19T07:07:55.754Z,991.4
2023-01-19T07:09:11.999Z,991.4
2023-01-19T07:10:28.235Z,991.4
2023-01-19T07:11:44.481Z,991.4
2023-01-19T07:13:00.729Z,991.4
2023-01-19T07:14:16.963Z,991.5
2023-01-19T07:15:32.230Z,991.5
2023-01-19T07:16:48.463Z,991.5
2023-01-19T07:18:04.709Z,991.6
2023-01-19T07:20:37.195Z,991.6
2023-01-19T07:21:53.441Z,991.6
2023-01-19T07:23:09.671Z,991.7
2023-01-19T07:25:42.151Z,991.7
2023-01-19T07:26:58.397Z,991.8
2023-01-19T07:28:14.645Z,991.8
2023-01-19T07:29:30.877Z,991.8
2023-01-19T07:30:47.128Z,991.8
2023-01-19T07:32:02.376Z,991.8
2023-01-19T07:33:18.629Z,991.9
2023-01-19T07:34:34.868Z,991.8
2023-01-19T07:35:51.099Z,991.9
2023-01-19T07:37:07.344Z,991.9
2023-01-19T07:38:23.578Z,991.9
2023-01-19T07:39:39.823Z,991.9
2023-01-19T07:40:56.069Z,991.9
2023-01-19T07:42:12.306Z,991.9
2023-01-19T07:43:28.556Z,991.9
2023-01-19T07:44:44.803Z,991.9
2023-01-19T07:46:01.024Z,992
2023-01-19T07:47:17.271Z,992.1
2023-01-19T07:48:32.536Z,992.1
2023-01-19T07:49:48.769Z,992
2023-01-19T07:51:05.023Z,992
2023-01-19T07:52:21.247Z,992
2023-01-19T07:53:37.500Z,992.1
2023-01-19T07:54:53.729Z,992.1
2023-01-19T07:56:09.974Z,992.1
2023-01-19T07:57:26.213Z,992.1
2023-01-19T07:58:42.459Z,992.1
2023-01-19T07:59:58.712Z,992.2
2023-01-19T08:01:14.948Z,992.2
2023-01-19T08:02:31.190Z,992.2
2023-01-19T08:03:47.427Z,992.2
2023-01-19T08:05:02.687Z,992.2
2023-01-19T08:06:18.927Z,992.2
2023-01-19T08:07:35.173Z,992.2
2023-01-19T08:08:51.411Z,992.2
2023-01-19T08:10:07.651Z,992.3
2023-01-19T08:11:23.892Z,992.3
2023-01-19T08:12:40.138Z,992.3
2023-01-19T08:13:56.369Z,992.3
2023-01-19T08:15:12.608Z,992.3
2023-01-19T08:16:28.850Z,992.4
2023-01-19T08:17:45.101Z,992.3
2023-01-19T08:19:01.346Z,992.4
2023-01-19T08:20:17.579Z,992.4
2023-01-19T08:21:32.837Z,992.4
2023-01-19T08:22:49.087Z,992.4
2023-01-19T08:24:05.333Z,992.4
2023-01-19T08:25:21.566Z,992.3
2023-01-19T08:26:37.793Z,992.3
2023-01-19T08:27:54.050Z,992.3
2023-01-19T08:29:10.280Z,992.3
2023-01-19T08:30:26.524Z,992.4
2023-01-19T08:31:42.770Z,992.4
2023-01-19T08:32:58.997Z,992.4
2023-01-19T08:34:15.248Z,992.4
2023-01-19T08:35:31.490Z,992.5
2023-01-19T08:36:47.730Z,992.5
2023-01-19T08:38:02.983Z,992.5
2023-01-19T08:39:19.224Z,992.5
2023-01-19T08:40:35.459Z,992.3
2023-01-19T08:41:51.708Z,992.4
2023-01-19T08:43:07.961Z,992.4
2023-01-19T08:44:24.205Z,992.3
2023-01-19T08:45:40.424Z,992.3
2023-01-19T08:46:56.688Z,992.4
2023-01-19T08:48:12.912Z,992.3
2023-01-19T08:49:29.163Z,992.4
2023-01-19T08:50:45.398Z,992.4
2023-01-19T08:52:01.650Z,992.4
2023-01-19T08:53:17.879Z,992.4
2023-01-19T08:54:33.142Z,992.5
2023-01-19T08:55:49.386Z,992.4
2023-01-19T08:57:05.630Z,992.4
2023-01-19T08:58:21.862Z,992.4
2023-01-19T08:59:38.100Z,992.4
2023-01-19T09:00:54.333Z,992.4
2023-01-19T09:02:10.591Z,992.4
2023-01-19T09:03:26.824Z,992.4
2023-01-19T09:04:43.072Z,992.5
2023-01-19T09:05:59.300Z,992.5
2023-01-19T09:07:15.543Z,992.5
2023-01-19T09:08:31.782Z,992.5
2023-01-19T09:09:48.030Z,992.4
2023-01-19T09:11:03.288Z,992.4
2023-01-19T09:12:19.535Z,992.4
2023-01-19T09:13:35.775Z,992.4
2023-01-19T09:14:52.012Z,992.5
2023-01-19T09:16:08.249Z,992.5
2023-01-19T09:17:24.500Z,992.4
2023-01-19T09:18:40.726Z,992.3
2023-01-19T09:19:56.986Z,992.3
2023-01-19T09:21:13.226Z,992.4
2023-01-19T09:22:29.463Z,992.4
2023-01-19T09:23:45.694Z,992.4
2023-01-19T09:25:01.934Z,992.4
2023-01-19T09:26:18.171Z,992.4
2023-01-19T09:27:33.442Z,992.4
2023-01-19T09:28:49.667Z,992.4
2023-01-19T09:30:05.913Z,992.3
2023-01-19T09:31:22.162Z,992.3
2023-01-19T09:32:38.404Z,992.4
2023-01-19T09:33:54.640Z,992.3
2023-01-19T09:35:10.869Z,992.3
2023-01-19T09:36:27.113Z,992.3
2023-01-19T09:37:43.357Z,992.3
2023-01-19T09:38:59.596Z,992.2
2023-01-19T09:40:15.831Z,992.2
2023-01-19T09:41:32.065Z,992.2
2023-01-19T09:42:48.315Z,992.2
2023-01-19T09:44:03.580Z,992.2
2023-01-19T09:45:19.817Z,992.2
2023-01-19T09:46:36.050Z,992.2
2023-01-19T09:47:52.280Z,992.2
2023-01-19T09:49:08.534Z,992.2
2023-01-19T09:50:24.760Z,992.3
2023-01-19T09:51:41.003Z,992.2
2023-01-19T09:52:57.242Z,992.2
2023-01-19T09:54:13.488Z,992.2
2023-01-19T09:55:29.725Z,992.2
2023-01-19T09:56:45.972Z,992.1
2023-01-19T09:58:02.207Z,992.2
2023-01-19T09:59:18.448Z,992.1
2023-01-19T10:00:33.695Z,992.1
2023-01-19T10:01:49.932Z,992.1
2023-01-19T10:03:06.185Z,992.1
2023-01-19T10:04:22.430Z,992
2023-01-19T10:05:38.651Z,992
2023-01-19T10:06:54.914Z,992.1
2023-01-19T10:08:10.000Z,992.1
2023-01-19T10:09:26.400Z,991.9
2023-01-19T10:10:42.645Z,992
2023-01-19T10:11:58.885Z,991.9
2023-01-19T10:13:15.113Z,991.9
2023-01-19T10:14:31.349Z,991.9
2023-01-19T10:15:47.590Z,991.9
2023-01-19T10:17:03.835Z,991.9
2023-01-19T10:18:20.081Z,991.9
2023-01-19T10:19:36.318Z,991.9
2023-01-19T10:20:52.560Z,991.9
2023-01-19T10:22:08.796Z,991.9
2023-01-19T10:23:25.033Z,991.8
2023-01-19T10:24:40.284Z,991.8
2023-01-19T10:25:56.531Z,991.8
2023-01-19T10:27:12.766Z,991.9
2023-01-19T10:28:29.011Z,991.8
2023-01-19T10:29:45.252Z,991.8
2023-01-19T10:31:01.483Z,991.8
2023-01-19T10:32:17.731Z,991.8
2023-01-19T10:33:33.978Z,991.8
2023-01-19T10:34:50.204Z,991.7
2023-01-19T10:36:06.448Z,991.7
2023-01-19T10:37:22.697Z,991.7
2023-01-19T10:38:38.929Z,991.7
2023-01-19T10:39:55.163Z,991.6
2023-01-19T10:41:10.424Z,991.6
2023-01-19T10:42:26.666Z,991.6
2023-01-19T10:43:42.912Z,991.6
2023-01-19T10:44:59.145Z,991.6
2023-01-19T10:46:15.378Z,991.7
2023-01-19T10:47:31.628Z,991.6
2023-01-19T10:48:47.859Z,991.6
2023-01-19T10:50:04.104Z,991.6
2023-01-19T10:51:20.344Z,991.6
2023-01-19T10:52:36.592Z,991.6
2023-01-19T10:53:52.819Z,991.5
2023-01-19T10:55:09.074Z,991.6
2023-01-19T10:56:25.296Z,991.5
2023-01-19T10:57:40.568Z,991.6
2023-01-19T10:58:56.803Z,991.6
2023-01-19T11:00:13.039Z,991.6
2023-01-19T11:01:29.285Z,991.6
2023-01-19T11:02:45.520Z,991.6
2023-01-19T11:04:01.760Z,991.6
2023-01-19T11:05:18.010Z,991.6
2023-01-19T11:06:34.233Z,991.6
2023-01-19T11:07:50.481Z,991.5
2023-01-19T11:09:06.730Z,991.6
2023-01-19T11:10:22.952Z,991.5
2023-01-19T11:11:39.197Z,991.5
2023-01-19T11:12:55.431Z,991.5
2023-01-19T11:14:10.694Z,991.5
2023-01-19T11:15:26.935Z,991.5
2023-01-19T11:16:43.179Z,991.5
2023-01-19T11:17:59.410Z,991.5
2023-01-19T11:19:15.653Z,991.4
2023-01-19T11:20:31.901Z,991.5
2023-01-19T11:21:48.127Z,991.4
2023-01-19T11:23:04.383Z,991.5
2023-01-19T11:24:20.616Z,991.5
2023-01-19T11:25:36.861Z,991.4
2023-01-19T11:26:53.105Z,991.4
2023-01-19T11:28:09.337Z,991.4
2023-01-19T11:29:25.570Z,991.4
2023-01-19T11:30:40.841Z,991.4
2023-01-19T11:31:57.068Z,991.4
2023-01-19T11:33:13.322Z,991.4
2023-01-19T11:34:29.556Z,991.4
2023-01-19T11:35:45.792Z,991.4
2023-01-19T11:37:02.050Z,991.4
2023-01-19T11:38:18.272Z,991.3
2023-01-19T11:39:34.511Z,991.3
2023-01-19T11:40:50.757Z,991.3
2023-01-19T11:42:07.001Z,991.3
2023-01-19T11:43:23.233Z,991.3
2023-01-19T11:44:39.473Z,991.2
2023-01-19T11:45:55.705Z,991.2
2023-01-19T11:47:10.966Z,991.3
2023-01-19T11:48:27.202Z,991.2
2023-01-19T11:49:43.440Z,991.2
2023-01-19T11:50:59.687Z,991.1
2023-01-19T11:52:15.936Z,991.1
2023-01-19T11:53:32.177Z,991.2
2023-01-19T11:54:48.411Z,991.2
2023-01-19T11:56:04.654Z,991.2
2023-01-19T11:57:20.886Z,991.1
2023-01-19T11:58:37.134Z,991
2023-01-19T11:59:53.376Z,991
2023-01-19T12:01:09.612Z,991.1
2023-01-19T12:02:25.853Z,991
2023-01-19T12:03:41.102Z,991.1
2023-01-19T12:04:57.353Z,991.1
2023-01-19T12:06:13.586Z,991.1
2023-01-19T12:07:29.830Z,991.2
2023-01-19T12:08:46.064Z,991.2
2023-01-19T12:10:02.294Z,991.1
2023-01-19T12:11:18.531Z,991.2
2023-01-19T12:12:34.784Z,991.2
2023-01-19T12:13:51.023Z,991.2
2023-01-19T12:15:07.265Z,991.1
2023-01-19T12:17:39.746Z,991
2023-01-19T12:18:55.972Z,990.9
2023-01-19T12:20:11.238Z,990.9
2023-01-19T12:21:27.479Z,991
2023-01-19T12:22:43.715Z,990.9
2023-01-19T12:23:59.944Z,990.9
2023-01-19T12:25:16.191Z,991
2023-01-19T12:26:32.441Z,990.9
2023-01-19T12:27:48.685Z,990.9
2023-01-19T12:29:04.916Z,990.9
2023-01-19T12:30:21.156Z,990.9
2023-01-19T12:31:37.389Z,990.8
2023-01-19T12:32:53.641Z,991
2023-01-19T12:34:09.875Z,991
2023-01-19T12:35:26.118Z,990.9
2023-01-19T12:36:41.369Z,991
2023-01-19T12:37:57.601Z,991
2023-01-19T12:39:13.858Z,991
2023-01-19T12:40:30.088Z,991
2023-01-19T12:41:46.333Z,991
2023-01-19T12:43:02.566Z,991
2023-01-19T12:44:18.806Z,991
2023-01-19T12:45:35.052Z,991
2023-01-19T12:46:51.288Z,991
2023-01-19T12:48:07.532Z,991
2023-01-19T12:49:23.779Z,991
2023-01-19T12:50:40.006Z,991
2023-01-19T12:51:56.245Z,991.1
2023-01-19T12:53:11.514Z,991.1
2023-01-19T12:54:27.737Z,991.2
2023-01-19T12:55:43.987Z,991.1
2023-01-19T12:57:00.236Z,991.1
2023-01-19T12:58:16.464Z,991.1
2023-01-19T12:59:32.708Z,991
2023-01-19T13:00:48.951Z,991.1
2023-01-19T13:02:05.179Z,991.1
2023-01-19T13:03:21.427Z,991.1
2023-01-19T13:04:37.662Z,991.1
2023-01-19T13:05:53.902Z,991
2023-01-19T13:07:10.142Z,991.1
2023-01-19T13:08:26.394Z,991.1
2023-01-19T13:09:41.652Z,991.2
2023-01-19T13:10:57.882Z,991.1
2023-01-19T13:12:14.133Z,991.2
2023-01-19T13:13:30.373Z,991.2
2023-01-19T13:14:46.614Z,991.2
2023-01-19T13:16:02.859Z,991.3
2023-01-19T13:17:19.078Z,991.3
2023-01-19T13:18:35.330Z,991.3
2023-01-19T13:19:51.566Z,991.3
2023-01-19T13:21:07.804Z,991.3
2023-01-19T13:22:24.045Z,991.3
2023-01-19T13:23:40.292Z,991.4
2023-01-19T13:24:56.519Z,991.3
2023-01-19T13:26:11.784Z,991.3
2023-01-19T13:27:28.031Z,991.3
2023-01-19T13:28:44.269Z,991.4
2023-01-19T13:30:00.507Z,991.5
2023-01-19T13:31:16.755Z,991.5
2023-01-19T13:32:32.995Z,991.4
2023-01-19T13:33:49.225Z,991.4
2023-01-19T13:35:05.464Z,991.4
2023-01-19T13:36:21.703Z,991.4
2023-01-19T13:40:10.436Z,991.3
2023-01-19T13:41:26.679Z,991.3
2023-01-19T13:42:41.918Z,991.4
2023-01-19T13:43:58.162Z,991.4
2023-01-19T13:45:14.408Z,991.3
2023-01-19T13:46:30.651Z,991.4
2023-01-19T13:47:46.890Z,991.4
2023-01-19T13:49:03.135Z,991.4
2023-01-19T13:50:19.369Z,991.5
2023-01-19T13:51:35.602Z,991.4
2023-01-19T13:52:51.845Z,991.5
2023-01-19T13:54:08.080Z,991.5
2023-01-19T13:55:24.331Z,991.5
2023-01-19T13:56:40.576Z,991.5
2023-01-19T13:57:56.817Z,991.5
2023-01-19T13:59:12.064Z,991.5
2023-01-19T14:00:28.317Z,991.5
2023-01-19T14:01:44.558Z,991.5
2023-01-19T14:03:00.789Z,991.5
2023-01-19T14:04:17.034Z,991.6
2023-01-19T14:05:33.277Z,991.4
2023-01-19T14:06:49.507Z,991.4
2023-01-19T14:08:05.742Z,991.5
2023-01-19T14:09:21.984Z,991.5
2023-01-19T14:10:38.222Z,991.6
2023-01-19T14:11:54.485Z,991.6
2023-01-19T14:13:10.710Z,991.5
2023-01-19T14:14:26.955Z,991.6
2023-01-19T14:15:42.202Z,991.5
2023-01-19T14:16:58.448Z,991.6
2023-01-19T14:18:14.684Z,991.6
2023-01-19T14:19:30.940Z,991.6
2023-01-19T14:20:47.172Z,991.7
2023-01-19T14:22:03.410Z,991.6
2023-01-19T14:23:18.685Z,991.7
2023-01-19T14:24:34.908Z,991.7
2023-01-19T14:25:51.158Z,991.8
2023-01-19T14:27:07.405Z,991.7
2023-01-19T14:28:23.633Z,991.7
2023-01-19T14:29:39.874Z,991.8
2023-01-19T14:30:56.114Z,991.8
2023-01-19T14:32:12.371Z,991.8
2023-01-19T14:33:28.606Z,991.8
2023-01-19T14:34:44.851Z,991.8
2023-01-19T14:36:01.074Z,991.8
2023-01-19T14:37:17.324Z,991.9
2023-01-19T14:38:33.560Z,991.8
2023-01-19T14:39:48.821Z,991.8
2023-01-19T14:41:05.061Z,991.9
2023-01-19T14:42:21.301Z,991.9
2023-01-19T14:43:37.538Z,991.8
2023-01-19T14:44:53.786Z,991.9
2023-01-19T14:46:10.032Z,992
2023-01-19T14:47:26.258Z,991.9
2023-01-19T14:48:42.497Z,991.9
2023-01-19T14:49:58.744Z,991.9
2023-01-19T14:51:14.974Z,992
2023-01-19T14:52:31.237Z,992
2023-01-19T14:53:47.460Z,991.9
2023-01-19T14:55:03.702Z,992
2023-01-19T14:56:18.962Z,992
2023-01-19T14:57:35.204Z,992
2023-01-19T14:58:51.446Z,992
2023-01-19T15:00:07.699Z,992
2023-01-19T15:01:23.924Z,992
2023-01-19T15:02:40.172Z,992
2023-01-19T15:03:56.413Z,992
2023-01-19T15:05:12.641Z,992.1
2023-01-19T15:06:28.895Z,992.1
2023-01-19T15:07:45.145Z,992
2023-01-19T15:09:01.365Z,992
2023-01-19T15:10:17.604Z,992.1
2023-01-19T15:11:33.842Z,992.1
2023-01-19T15:12:49.117Z,992.1
2023-01-19T15:14:05.356Z,992.1
2023-01-19T15:15:21.597Z,992.1
2023-01-19T15:16:37.834Z,992.1
2023-01-19T15:17:54.062Z,992.1
2023-01-19T15:19:10.312Z,992.1
2023-01-19T15:20:26.553Z,992.1
2023-01-19T15:21:42.798Z,992.1
2023-01-19T15:22:59.024Z,992.1
2023-01-19T15:24:15.281Z,992.2
2023-01-19T15:25:31.517Z,992.2
2023-01-19T15:26:47.762Z,992.1
2023-01-19T15:28:04.000Z,992.1
2023-01-19T15:29:19.250Z,992.1
2023-01-19T15:30:35.507Z,992.2
2023-01-19T15:31:51.733Z,992.2
2023-01-19T15:33:07.974Z,992.2
2023-01-19T15:34:24.213Z,992.1
2023-01-19T15:35:40.468Z,992.1
2023-01-19T15:36:56.702Z,992.1
2023-01-19T15:38:12.935Z,992.1
2023-01-19T15:39:29.177Z,992.2
2023-01-19T15:40:45.430Z,992.1
2023-01-19T15:42:01.663Z,992.2
2023-01-19T15:43:17.909Z,992.2
2023-01-19T15:44:34.135Z,992.1
2023-01-19T15:45:49.394Z,992.1
2023-01-19T15:47:05.638Z,992.1
2023-01-19T15:48:21.880Z,992.2
2023-01-19T15:49:38.120Z,992.1
2023-01-19T15:50:54.355Z,992.1
2023-01-19T15:52:10.600Z,992.2
2023-01-19T15:53:26.854Z,992.2
2023-01-19T15:54:43.073Z,992.2
2023-01-19T15:55:59.314Z,992.2
2023-01-19T15:57:15.558Z,992.2
2023-01-19T15:58:31.810Z,992.3
2023-01-19T15:59:48.041Z,992.2
2023-01-19T16:01:04.282Z,992.2
2023-01-19T16:02:19.536Z,992.2
2023-01-19T16:03:35.788Z,992.3
2023-01-19T16:04:52.022Z,992.4
2023-01-19T16:06:08.268Z,992.2
2023-01-19T16:07:24.514Z,992.3
2023-01-19T16:08:40.757Z,992.3
2023-01-19T16:09:56.990Z,992.3
2023-01-19T16:11:13.226Z,992.3
2023-01-19T16:12:29.462Z,992.3
2023-01-19T16:13:45.759Z,992.3
2023-01-19T16:15:02.064Z,992.3
2023-01-19T16:16:18.353Z,992.3
2023-01-19T16:17:34.649Z,992.3
2023-01-19T16:18:49.964Z,992.3
2023-01-19T16:20:06.260Z,992.4
2023-01-19T16:21:22.545Z,992.4
2023-01-19T16:22:38.835Z,992.3
2023-01-19T16:23:55.136Z,992.3
2023-01-19T16:25:11.436Z,992.4
2023-01-19T16:26:27.725Z,992.4
2023-01-19T16:27:44.014Z,992.4
2023-01-19T16:29:00.308Z,992.5
2023-01-19T16:30:16.603Z,992.4
2023-01-19T16:31:32.911Z,992.5
2023-01-19T16:32:49.188Z,992.5
2023-01-19T16:34:05.492Z,992.4